This is the latest recevied weather packets stored in our database for station/object CE4ERM-13. If no packets are shown the sender has not sent any weather packets the latest 10 day(s).
| Time | Temp. | Humidity | Pressure | Rain* | Wind** | Luminosity | Snow |
|---|---|---|---|---|---|---|---|
| 1777955336 | 22.78° C | 33% | 1016.4 hPa | - | - | - | - |
| 1777955286 | 22.78° C | 33% | 1016.4 hPa | - | - | - | - |
| 1777954273 | 20° C | 37% | 1014 hPa | - | - | - | - |
| 1777954086 | 22.78° C | 33% | 1016.5 hPa | - | - | - | - |
| 1777953486 | 22.78° C | 33% | 1016.6 hPa | - | - | - | - |
| 1777952286 | 22.78° C | 32% | 1017.7 hPa | - | - | - | - |
| 1777951085 | 22.78° C | 32% | 1016.8 hPa | - | - | - | - |
| 1777950485 | 22.78° C | 32% | 1017.2 hPa | - | - | - | - |
| 1777949885 | 22.78° C | 31% | 1017.1 hPa | - | - | - | - |
| 1777948682 | 22.78° C | 32% | 1015.9 hPa | - | - | - | - |
| 1777948082 | 22.78° C | 32% | 1015.7 hPa | - | - | - | - |
| 1777947671 | 20.56° C | 36% | 1016.8 hPa | - | - | - | - |
| 1777947482 | 22.78° C | 32% | 1016.2 hPa | - | - | - | - |
| 1777946883 | 22.78° C | 32% | 1016.2 hPa | - | - | - | - |
| 1777946281 | 22.78° C | 32% | 1016.5 hPa | - | - | - | - |
| 1777945269 | 21.11° C | 35% | 1016.6 hPa | - | - | - | - |
| 1777945081 | 22.78° C | 31% | 1015.3 hPa | - | - | - | - |
| 1777944481 | 23.33° C | 31% | 1015.2 hPa | - | - | - | - |
| 1777944069 | 21.11° C | 34% | 1015.1 hPa | - | - | - | - |
| 1777943879 | 23.33° C | 31% | 1014.8 hPa | - | - | - | - |
| 1777943278 | 23.89° C | 30% | 1015.6 hPa | - | - | - | - |
| 1777942679 | 23.89° C | 30% | 1016.4 hPa | - | - | - | - |
| 1777942269 | 21.67° C | 34% | 1017.4 hPa | - | - | - | - |
| 1777942078 | 23.33° C | 30% | 1017.1 hPa | - | - | - | - |
| 1777941669 | 21.67° C | 33% | 1016.4 hPa | - | - | - | - |
* Rain since midnight (hover to see other rain measurements)
** Current wind speed in m/s (hover to see current wind gust speed)